메인 페이지
METAR-TAF:

METAR-TAF

공항 :

뉴이슬라마바드 국제공항

이슬라마바드, 파키스탄

위도: 33-32-57N, 경도: 072-49-32E, 고도: 537m

현재 날씨관측

예보는 46분 전, 22:55시(UTC)에 발표되었습니다.
남서5kt
온도 12°C
습도 100%
기압 1015 hPa
시정: 0050m
안개

METAR: OPIS 312255Z 23005KT 0050 R28L/1000 RMID/0275 R10R/1100 FG VV/// 12/12 Q1015 TEMPO 0500

시각: 04:41 (23:41 UTC)

예보

예보는 2 시간 41분 전, 21:00시(UTC)에 발표되었습니다.
예보 대상 시간: 01일 00시부터 02일 06시까지 (UTC)
10kt
시정: 6000m
고도 4000ft 상공 구름 보통
고도 10000ft 상공 구름 많음
일시적
01일 00시부터 01일 05시까지 (UTC)
서북서10kt
시정: 3000m
박무
일시적
01일 05시부터 01일 09시까지 (UTC)
동남동15kt, 순간 최대 풍속 25kt
시정: 2000m
고도 3000ft 상공 구름 조금, 적란운.
고도 4000ft 상공 구름 보통
고도 10000ft 상공 흐림
뇌우, 비

TAF: OPIS 312100Z 0100/0206 27010KT 6000 SCT040 BKN100 TEMPO 0100/0105 30010KT 3000 BR TEMPO 0105/0109 12015G25KT 2000 TSRA FEW030CB SCT040 OVC100

4,000개 이상의 공항 관측 자료 및 예보 (METAR 및 TAF 보고).

지도상에서 검색 가능한 기상관측소가 노란 점과 빨간 점으로 표시되어 있습니다.

기상관측소 명을 보려면 표시 위로 마우스를 이동하세요.

날씨 관측과 예보를 보려면 클릭하세요.

지도 변경 : 확대하려면 엑스 표시가 있는 녹색 버튼, 축소하려면 빼기 표시가 있는 녹색 버튼, 다음 페이지의 지도를 보려면 녹색 화살표를 클릭하세요.


METAR-TAF: